Terminal Aerodrome Forecast
Issued by NWS

Home | Current Version | Previous Version | Text Only | Print | Product List | Glossary On
Versions: 1 2 3 4 5 6 7 8 9 10 11 12 13 14
000
FTUS42 TJSJ 191700
TAFJMZ
TAF
TJMZ 191734Z 1918/2018 28012KT P6SM SCT040
     FM191900 27010KT P6SM VCTS SCT030CB
      TEMPO 1919/1921 VRB15KT 5SM TSRA BKN025CB
     FM192300 06006KT P6SM SCT025
     FM201530 27008KT P6SM SCT025
      AMD NOT SKED 1923/2016=

USA.gov is the U.S. government's official web portal to all federal, state and local government web resources and services.